sensor_id;sensor_type;location;lat;lon;timestamp;P1;durP1;ratioP1;P2;durP2;ratioP2
9160;SDS011;4615;51.340;8.288;2023-05-01T00:01:51;4.30;;;3.17;;
9160;SDS011;4615;51.340;8.288;2023-05-01T00:04:18;4.30;;;3.13;;
9160;SDS011;4615;51.340;8.288;2023-05-01T00:06:45;6.07;;;3.47;;
9160;SDS011;4615;51.340;8.288;2023-05-01T00:09:12;3.65;;;3.20;;
9160;SDS011;4615;51.340;8.288;2023-05-01T00:11:38;5.13;;;3.28;;
9160;SDS011;4615;51.340;8.288;2023-05-01T00:14:04;5.57;;;3.30;;
9160;SDS011;4615;51.340;8.288;2023-05-01T00:16:31;4.07;;;3.15;;
9160;SDS011;4615;51.340;8.288;2023-05-01T00:18:59;6.45;;;3.45;;
9160;SDS011;4615;51.340;8.288;2023-05-01T00:21:25;5.00;;;3.20;;
9160;SDS011;4615;51.340;8.288;2023-05-01T00:23:52;4.30;;;3.25;;
9160;SDS011;4615;51.340;8.288;2023-05-01T00:26:19;3.63;;;2.90;;
9160;SDS011;4615;51.340;8.288;2023-05-01T00:28:46;5.25;;;2.90;;
9160;SDS011;4615;51.340;8.288;2023-05-01T00:31:12;4.10;;;2.78;;
9160;SDS011;4615;51.340;8.288;2023-05-01T00:33:38;5.70;;;3.20;;
9160;SDS011;4615;51.340;8.288;2023-05-01T00:36:07;5.22;;;2.88;;
9160;SDS011;4615;51.340;8.288;2023-05-01T00:38:34;3.75;;;3.00;;
9160;SDS011;4615;51.340;8.288;2023-05-01T00:41:00;5.25;;;3.38;;
9160;SDS011;4615;51.340;8.288;2023-05-01T00:43:26;4.70;;;3.00;;
9160;SDS011;4615;51.340;8.288;2023-05-01T00:45:53;5.57;;;3.33;;
9160;SDS011;4615;51.340;8.288;2023-05-01T00:48:19;4.85;;;3.25;;
9160;SDS011;4615;51.340;8.288;2023-05-01T00:50:46;5.32;;;2.97;;
9160;SDS011;4615;51.340;8.288;2023-05-01T00:53:14;3.58;;;2.85;;
9160;SDS011;4615;51.340;8.288;2023-05-01T00:55:41;3.13;;;2.60;;
9160;SDS011;4615;51.340;8.288;2023-05-01T00:58:07;5.70;;;3.00;;
9160;SDS011;4615;51.340;8.288;2023-05-01T01:00:34;4.47;;;2.70;;
9160;SDS011;4615;51.340;8.288;2023-05-01T01:03:00;4.78;;;2.70;;
9160;SDS011;4615;51.340;8.288;2023-05-01T01:05:28;4.03;;;2.90;;
9160;SDS011;4615;51.340;8.288;2023-05-01T01:07:58;4.78;;;3.28;;
9160;SDS011;4615;51.340;8.288;2023-05-01T01:10:33;5.07;;;3.53;;
9160;SDS011;4615;51.340;8.288;2023-05-01T01:13:01;7.75;;;3.40;;
9160;SDS011;4615;51.340;8.288;2023-05-01T01:15:31;5.45;;;3.00;;
9160;SDS011;4615;51.340;8.288;2023-05-01T01:18:01;4.75;;;3.10;;
9160;SDS011;4615;51.340;8.288;2023-05-01T01:20:31;4.07;;;3.00;;
9160;SDS011;4615;51.340;8.288;2023-05-01T01:23:10;4.68;;;3.08;;
9160;SDS011;4615;51.340;8.288;2023-05-01T01:25:53;5.83;;;3.20;;
9160;SDS011;4615;51.340;8.288;2023-05-01T01:31:10;4.35;;;3.05;;
9160;SDS011;4615;51.340;8.288;2023-05-01T01:33:50;5.20;;;3.10;;
9160;SDS011;4615;51.340;8.288;2023-05-01T01:36:19;6.55;;;3.45;;
9160;SDS011;4615;51.340;8.288;2023-05-01T01:38:50;5.03;;;3.13;;
9160;SDS011;4615;51.340;8.288;2023-05-01T01:41:19;4.00;;;3.30;;
9160;SDS011;4615;51.340;8.288;2023-05-01T01:43:51;4.28;;;2.92;;
9160;SDS011;4615;51.340;8.288;2023-05-01T01:46:19;5.18;;;3.50;;
9160;SDS011;4615;51.340;8.288;2023-05-01T01:48:47;4.88;;;3.13;;
9160;SDS011;4615;51.340;8.288;2023-05-01T01:51:15;5.40;;;3.00;;
9160;SDS011;4615;51.340;8.288;2023-05-01T01:53:44;5.13;;;3.20;;
9160;SDS011;4615;51.340;8.288;2023-05-01T01:56:11;5.32;;;2.95;;
9160;SDS011;4615;51.340;8.288;2023-05-01T01:58:37;4.38;;;2.95;;
9160;SDS011;4615;51.340;8.288;2023-05-01T02:01:04;5.50;;;3.10;;
9160;SDS011;4615;51.340;8.288;2023-05-01T02:03:31;4.00;;;3.20;;
9160;SDS011;4615;51.340;8.288;2023-05-01T02:05:58;4.90;;;3.20;;
9160;SDS011;4615;51.340;8.288;2023-05-01T02:08:26;5.03;;;3.42;;
9160;SDS011;4615;51.340;8.288;2023-05-01T02:10:54;5.18;;;3.40;;
9160;SDS011;4615;51.340;8.288;2023-05-01T02:13:23;4.93;;;3.47;;
9160;SDS011;4615;51.340;8.288;2023-05-01T02:15:51;4.28;;;3.15;;
9160;SDS011;4615;51.340;8.288;2023-05-01T02:18:18;3.65;;;3.13;;
9160;SDS011;4615;51.340;8.288;2023-05-01T02:20:45;3.70;;;3.08;;
9160;SDS011;4615;51.340;8.288;2023-05-01T02:23:12;4.43;;;3.10;;
9160;SDS011;4615;51.340;8.288;2023-05-01T02:25:40;3.92;;;3.20;;
9160;SDS011;4615;51.340;8.288;2023-05-01T02:28:08;6.30;;;3.35;;
9160;SDS011;4615;51.340;8.288;2023-05-01T02:30:35;5.03;;;2.95;;
9160;SDS011;4615;51.340;8.288;2023-05-01T02:33:01;3.87;;;3.13;;
9160;SDS011;4615;51.340;8.288;2023-05-01T02:35:28;3.67;;;3.15;;
9160;SDS011;4615;51.340;8.288;2023-05-01T02:37:54;3.92;;;3.20;;
9160;SDS011;4615;51.340;8.288;2023-05-01T02:40:21;5.40;;;3.38;;
9160;SDS011;4615;51.340;8.288;2023-05-01T02:42:49;4.20;;;3.45;;
9160;SDS011;4615;51.340;8.288;2023-05-01T02:45:17;4.97;;;3.42;;
9160;SDS011;4615;51.340;8.288;2023-05-01T02:47:44;4.30;;;3.10;;
9160;SDS011;4615;51.340;8.288;2023-05-01T02:50:12;4.25;;;3.17;;
9160;SDS011;4615;51.340;8.288;2023-05-01T02:52:39;4.13;;;3.05;;
9160;SDS011;4615;51.340;8.288;2023-05-01T02:55:06;4.30;;;2.90;;
9160;SDS011;4615;51.340;8.288;2023-05-01T02:57:33;5.45;;;3.47;;
9160;SDS011;4615;51.340;8.288;2023-05-01T03:00:02;5.15;;;3.53;;
9160;SDS011;4615;51.340;8.288;2023-05-01T03:02:28;5.40;;;3.80;;
9160;SDS011;4615;51.340;8.288;2023-05-01T03:04:56;4.57;;;3.28;;
9160;SDS011;4615;51.340;8.288;2023-05-01T03:07:22;5.00;;;3.35;;
9160;SDS011;4615;51.340;8.288;2023-05-01T03:09:48;3.88;;;3.20;;
9160;SDS011;4615;51.340;8.288;2023-05-01T03:12:15;4.07;;;3.25;;
9160;SDS011;4615;51.340;8.288;2023-05-01T03:14:42;4.73;;;3.40;;
9160;SDS011;4615;51.340;8.288;2023-05-01T03:17:10;4.55;;;3.10;;
9160;SDS011;4615;51.340;8.288;2023-05-01T03:19:37;4.45;;;3.28;;
9160;SDS011;4615;51.340;8.288;2023-05-01T03:22:04;4.87;;;3.20;;
9160;SDS011;4615;51.340;8.288;2023-05-01T03:24:30;4.70;;;3.47;;
9160;SDS011;4615;51.340;8.288;2023-05-01T03:26:57;3.95;;;3.38;;
9160;SDS011;4615;51.340;8.288;2023-05-01T03:29:23;4.07;;;3.13;;
9160;SDS011;4615;51.340;8.288;2023-05-01T03:31:50;4.43;;;3.20;;
9160;SDS011;4615;51.340;8.288;2023-05-01T03:34:18;4.07;;;3.25;;
9160;SDS011;4615;51.340;8.288;2023-05-01T03:36:44;3.80;;;3.38;;
9160;SDS011;4615;51.340;8.288;2023-05-01T03:39:10;4.18;;;3.75;;
9160;SDS011;4615;51.340;8.288;2023-05-01T03:41:37;3.80;;;3.40;;
9160;SDS011;4615;51.340;8.288;2023-05-01T03:44:03;3.90;;;3.20;;
9160;SDS011;4615;51.340;8.288;2023-05-01T03:46:30;5.32;;;3.63;;
9160;SDS011;4615;51.340;8.288;2023-05-01T03:48:56;5.10;;;3.55;;
9160;SDS011;4615;51.340;8.288;2023-05-01T03:51:25;3.83;;;3.22;;
9160;SDS011;4615;51.340;8.288;2023-05-01T03:53:51;4.90;;;3.40;;
9160;SDS011;4615;51.340;8.288;2023-05-01T03:56:20;6.18;;;3.17;;
9160;SDS011;4615;51.340;8.288;2023-05-01T03:58:49;4.90;;;3.42;;
9160;SDS011;4615;51.340;8.288;2023-05-01T04:01:16;4.07;;;3.10;;
9160;SDS011;4615;51.340;8.288;2023-05-01T04:03:42;5.20;;;3.53;;
9160;SDS011;4615;51.340;8.288;2023-05-01T04:06:09;4.60;;;3.40;;
9160;SDS011;4615;51.340;8.288;2023-05-01T04:08:37;4.03;;;3.10;;
9160;SDS011;4615;51.340;8.288;2023-05-01T04:11:04;5.37;;;3.20;;
9160;SDS011;4615;51.340;8.288;2023-05-01T04:13:30;4.35;;;3.10;;
9160;SDS011;4615;51.340;8.288;2023-05-01T04:15:57;5.28;;;3.50;;
9160;SDS011;4615;51.340;8.288;2023-05-01T04:18:24;4.15;;;3.28;;
9160;SDS011;4615;51.340;8.288;2023-05-01T04:20:50;4.13;;;3.30;;
9160;SDS011;4615;51.340;8.288;2023-05-01T04:23:16;4.68;;;3.30;;
9160;SDS011;4615;51.340;8.288;2023-05-01T04:25:45;6.13;;;3.10;;
9160;SDS011;4615;51.340;8.288;2023-05-01T04:28:12;4.20;;;3.10;;
9160;SDS011;4615;51.340;8.288;2023-05-01T04:30:38;5.05;;;3.20;;
9160;SDS011;4615;51.340;8.288;2023-05-01T04:33:05;3.85;;;3.08;;
9160;SDS011;4615;51.340;8.288;2023-05-01T04:35:35;5.43;;;3.40;;
9160;SDS011;4615;51.340;8.288;2023-05-01T04:38:03;3.87;;;3.33;;
9160;SDS011;4615;51.340;8.288;2023-05-01T04:40:29;3.90;;;3.10;;
9160;SDS011;4615;51.340;8.288;2023-05-01T04:42:57;5.20;;;3.58;;
9160;SDS011;4615;51.340;8.288;2023-05-01T04:45:23;4.03;;;3.22;;
9160;SDS011;4615;51.340;8.288;2023-05-01T04:47:50;3.78;;;3.10;;
9160;SDS011;4615;51.340;8.288;2023-05-01T04:50:16;4.20;;;3.22;;
9160;SDS011;4615;51.340;8.288;2023-05-01T04:52:42;3.78;;;3.42;;
9160;SDS011;4615;51.340;8.288;2023-05-01T04:55:09;3.45;;;3.10;;
9160;SDS011;4615;51.340;8.288;2023-05-01T04:57:35;3.90;;;2.95;;
9160;SDS011;4615;51.340;8.288;2023-05-01T05:00:03;3.47;;;3.17;;
9160;SDS011;4615;51.340;8.288;2023-05-01T05:02:31;4.72;;;3.25;;
9160;SDS011;4615;51.340;8.288;2023-05-01T05:04:58;3.75;;;3.35;;
9160;SDS011;4615;51.340;8.288;2023-05-01T05:07:24;4.90;;;3.15;;
9160;SDS011;4615;51.340;8.288;2023-05-01T05:09:50;4.00;;;3.20;;
9160;SDS011;4615;51.340;8.288;2023-05-01T05:12:17;4.50;;;3.40;;
9160;SDS011;4615;51.340;8.288;2023-05-01T05:14:43;4.65;;;3.42;;
9160;SDS011;4615;51.340;8.288;2023-05-01T05:17:11;3.85;;;3.40;;
9160;SDS011;4615;51.340;8.288;2023-05-01T05:19:38;4.80;;;3.30;;
9160;SDS011;4615;51.340;8.288;2023-05-01T05:22:04;4.15;;;3.40;;
9160;SDS011;4615;51.340;8.288;2023-05-01T05:24:31;3.60;;;3.30;;
9160;SDS011;4615;51.340;8.288;2023-05-01T05:26:58;4.30;;;3.20;;
9160;SDS011;4615;51.340;8.288;2023-05-01T05:29:24;4.60;;;3.20;;
9160;SDS011;4615;51.340;8.288;2023-05-01T05:31:51;3.78;;;3.10;;
9160;SDS011;4615;51.340;8.288;2023-05-01T05:34:19;3.88;;;2.80;;
9160;SDS011;4615;51.340;8.288;2023-05-01T05:36:45;4.57;;;2.97;;
9160;SDS011;4615;51.340;8.288;2023-05-01T05:39:11;3.80;;;3.20;;
9160;SDS011;4615;51.340;8.288;2023-05-01T05:41:38;4.28;;;3.25;;
9160;SDS011;4615;51.340;8.288;2023-05-01T05:44:04;3.30;;;3.00;;
9160;SDS011;4615;51.340;8.288;2023-05-01T05:46:31;4.35;;;2.78;;
9160;SDS011;4615;51.340;8.288;2023-05-01T05:48:57;3.90;;;3.10;;
9160;SDS011;4615;51.340;8.288;2023-05-01T05:51:25;4.10;;;3.20;;
9160;SDS011;4615;51.340;8.288;2023-05-01T05:53:52;3.25;;;2.92;;
9160;SDS011;4615;51.340;8.288;2023-05-01T05:56:18;4.43;;;3.22;;
9160;SDS011;4615;51.340;8.288;2023-05-01T05:58:44;4.57;;;3.15;;
9160;SDS011;4615;51.340;8.288;2023-05-01T06:01:11;3.50;;;3.20;;
9160;SDS011;4615;51.340;8.288;2023-05-01T06:03:39;4.93;;;3.20;;
9160;SDS011;4615;51.340;8.288;2023-05-01T06:06:05;4.82;;;3.40;;
9160;SDS011;4615;51.340;8.288;2023-05-01T06:08:33;4.15;;;3.20;;
9160;SDS011;4615;51.340;8.288;2023-05-01T06:11:01;3.45;;;3.15;;
9160;SDS011;4615;51.340;8.288;2023-05-01T06:13:27;4.57;;;3.10;;
9160;SDS011;4615;51.340;8.288;2023-05-01T06:15:54;5.70;;;3.35;;
9160;SDS011;4615;51.340;8.288;2023-05-01T06:18:21;3.60;;;3.17;;
9160;SDS011;4615;51.340;8.288;2023-05-01T06:20:47;4.15;;;3.38;;
9160;SDS011;4615;51.340;8.288;2023-05-01T06:23:14;4.50;;;3.50;;
9160;SDS011;4615;51.340;8.288;2023-05-01T06:25:41;6.20;;;3.42;;
9160;SDS011;4615;51.340;8.288;2023-05-01T06:28:08;5.03;;;3.65;;
9160;SDS011;4615;51.340;8.288;2023-05-01T06:30:35;4.50;;;3.10;;
9160;SDS011;4615;51.340;8.288;2023-05-01T06:33:01;3.67;;;3.10;;
9160;SDS011;4615;51.340;8.288;2023-05-01T06:35:28;4.70;;;3.65;;
9160;SDS011;4615;51.340;8.288;2023-05-01T06:37:54;4.13;;;3.40;;
9160;SDS011;4615;51.340;8.288;2023-05-01T06:40:21;5.28;;;3.60;;
9160;SDS011;4615;51.340;8.288;2023-05-01T06:42:48;4.10;;;3.40;;
9160;SDS011;4615;51.340;8.288;2023-05-01T06:45:15;4.90;;;3.23;;
9160;SDS011;4615;51.340;8.288;2023-05-01T06:47:41;4.53;;;3.30;;
9160;SDS011;4615;51.340;8.288;2023-05-01T06:50:08;3.55;;;3.10;;
9160;SDS011;4615;51.340;8.288;2023-05-01T06:52:35;5.07;;;3.42;;
9160;SDS011;4615;51.340;8.288;2023-05-01T06:55:01;4.78;;;3.53;;
9160;SDS011;4615;51.340;8.288;2023-05-01T06:57:28;5.20;;;3.43;;
9160;SDS011;4615;51.340;8.288;2023-05-01T06:59:55;5.65;;;3.50;;
9160;SDS011;4615;51.340;8.288;2023-05-01T07:02:22;4.32;;;3.50;;
9160;SDS011;4615;51.340;8.288;2023-05-01T07:04:48;5.28;;;4.32;;
9160;SDS011;4615;51.340;8.288;2023-05-01T07:07:15;5.90;;;3.53;;
9160;SDS011;4615;51.340;8.288;2023-05-01T07:09:41;4.03;;;3.40;;
9160;SDS011;4615;51.340;8.288;2023-05-01T07:12:07;5.63;;;3.55;;
9160;SDS011;4615;51.340;8.288;2023-05-01T07:14:34;4.32;;;3.30;;
9160;SDS011;4615;51.340;8.288;2023-05-01T07:17:02;4.00;;;3.00;;
9160;SDS011;4615;51.340;8.288;2023-05-01T07:19:28;4.10;;;3.17;;
9160;SDS011;4615;51.340;8.288;2023-05-01T07:21:54;6.20;;;3.40;;
9160;SDS011;4615;51.340;8.288;2023-05-01T07:24:21;5.13;;;3.40;;
9160;SDS011;4615;51.340;8.288;2023-05-01T07:26:47;4.88;;;3.50;;
9160;SDS011;4615;51.340;8.288;2023-05-01T07:29:14;4.47;;;3.35;;
9160;SDS011;4615;51.340;8.288;2023-05-01T07:31:42;4.40;;;3.27;;
9160;SDS011;4615;51.340;8.288;2023-05-01T07:34:10;4.00;;;3.30;;
9160;SDS011;4615;51.340;8.288;2023-05-01T07:36:36;5.22;;;3.63;;
9160;SDS011;4615;51.340;8.288;2023-05-01T07:39:03;3.85;;;3.28;;
9160;SDS011;4615;51.340;8.288;2023-05-01T07:41:30;4.38;;;3.42;;
9160;SDS011;4615;51.340;8.288;2023-05-01T07:43:57;5.05;;;3.47;;
9160;SDS011;4615;51.340;8.288;2023-05-01T07:46:23;3.75;;;3.35;;
9160;SDS011;4615;51.340;8.288;2023-05-01T07:48:50;5.57;;;3.70;;
9160;SDS011;4615;51.340;8.288;2023-05-01T07:51:17;4.40;;;3.55;;
9160;SDS011;4615;51.340;8.288;2023-05-01T07:53:44;4.60;;;3.55;;
9160;SDS011;4615;51.340;8.288;2023-05-01T07:56:11;5.55;;;3.92;;
9160;SDS011;4615;51.340;8.288;2023-05-01T07:58:37;4.63;;;3.07;;
9160;SDS011;4615;51.340;8.288;2023-05-01T08:01:05;8.15;;;6.50;;
9160;SDS011;4615;51.340;8.288;2023-05-01T08:03:31;5.25;;;3.72;;
9160;SDS011;4615;51.340;8.288;2023-05-01T08:05:58;4.43;;;3.50;;
9160;SDS011;4615;51.340;8.288;2023-05-01T08:08:26;3.90;;;2.85;;
9160;SDS011;4615;51.340;8.288;2023-05-01T08:10:52;3.80;;;2.58;;
9160;SDS011;4615;51.340;8.288;2023-05-01T08:13:19;3.85;;;2.40;;
9160;SDS011;4615;51.340;8.288;2023-05-01T08:15:45;3.90;;;2.60;;
9160;SDS011;4615;51.340;8.288;2023-05-01T08:18:12;3.45;;;2.45;;
9160;SDS011;4615;51.340;8.288;2023-05-01T08:20:43;3.20;;;2.50;;
9160;SDS011;4615;51.340;8.288;2023-05-01T08:23:10;4.13;;;2.47;;
9160;SDS011;4615;51.340;8.288;2023-05-01T08:25:38;3.55;;;2.40;;
9160;SDS011;4615;51.340;8.288;2023-05-01T08:28:04;3.17;;;2.40;;
9160;SDS011;4615;51.340;8.288;2023-05-01T08:30:31;3.93;;;2.50;;
9160;SDS011;4615;51.340;8.288;2023-05-01T08:32:57;3.85;;;2.60;;
9160;SDS011;4615;51.340;8.288;2023-05-01T08:35:23;2.83;;;2.40;;
9160;SDS011;4615;51.340;8.288;2023-05-01T08:37:50;4.47;;;2.63;;
9160;SDS011;4615;51.340;8.288;2023-05-01T08:40:17;3.85;;;2.53;;
9160;SDS011;4615;51.340;8.288;2023-05-01T08:42:45;4.15;;;2.60;;
9160;SDS011;4615;51.340;8.288;2023-05-01T08:45:13;2.80;;;2.40;;
9160;SDS011;4615;51.340;8.288;2023-05-01T08:47:41;3.28;;;2.67;;
9160;SDS011;4615;51.340;8.288;2023-05-01T08:50:09;3.53;;;2.85;;
9160;SDS011;4615;51.340;8.288;2023-05-01T08:52:36;4.97;;;2.65;;
9160;SDS011;4615;51.340;8.288;2023-05-01T08:55:05;3.13;;;2.63;;
9160;SDS011;4615;51.340;8.288;2023-05-01T08:57:33;3.08;;;2.60;;
9160;SDS011;4615;51.340;8.288;2023-05-01T09:00:03;3.60;;;2.60;;
9160;SDS011;4615;51.340;8.288;2023-05-01T09:02:32;3.50;;;2.47;;
9160;SDS011;4615;51.340;8.288;2023-05-01T09:04:59;3.15;;;2.67;;
9160;SDS011;4615;51.340;8.288;2023-05-01T09:07:28;3.75;;;2.72;;
9160;SDS011;4615;51.340;8.288;2023-05-01T09:09:54;4.72;;;2.85;;
9160;SDS011;4615;51.340;8.288;2023-05-01T09:12:21;3.65;;;2.50;;
9160;SDS011;4615;51.340;8.288;2023-05-01T09:14:48;3.75;;;2.53;;
9160;SDS011;4615;51.340;8.288;2023-05-01T09:17:16;3.30;;;2.60;;
9160;SDS011;4615;51.340;8.288;2023-05-01T09:19:43;3.50;;;2.40;;
9160;SDS011;4615;51.340;8.288;2023-05-01T09:22:09;2.50;;;2.30;;
9160;SDS011;4615;51.340;8.288;2023-05-01T09:24:36;4.72;;;2.58;;
9160;SDS011;4615;51.340;8.288;2023-05-01T09:27:02;4.65;;;2.65;;
9160;SDS011;4615;51.340;8.288;2023-05-01T09:32:14;3.08;;;2.30;;
9160;SDS011;4615;51.340;8.288;2023-05-01T09:34:45;3.17;;;2.50;;
9160;SDS011;4615;51.340;8.288;2023-05-01T09:37:13;3.60;;;2.47;;
9160;SDS011;4615;51.340;8.288;2023-05-01T09:39:40;3.05;;;2.40;;
9160;SDS011;4615;51.340;8.288;2023-05-01T09:42:06;3.03;;;2.47;;
9160;SDS011;4615;51.340;8.288;2023-05-01T09:44:39;3.13;;;2.20;;
9160;SDS011;4615;51.340;8.288;2023-05-01T09:47:06;3.30;;;2.13;;
9160;SDS011;4615;51.340;8.288;2023-05-01T09:49:46;2.60;;;2.10;;
9160;SDS011;4615;51.340;8.288;2023-05-01T09:52:13;2.38;;;1.90;;
9160;SDS011;4615;51.340;8.288;2023-05-01T09:54:42;4.25;;;2.35;;
9160;SDS011;4615;51.340;8.288;2023-05-01T09:57:12;2.03;;;1.85;;
9160;SDS011;4615;51.340;8.288;2023-05-01T09:59:38;3.10;;;2.10;;
9160;SDS011;4615;51.340;8.288;2023-05-01T10:02:04;1.98;;;1.83;;
9160;SDS011;4615;51.340;8.288;2023-05-01T10:04:31;1.60;;;1.45;;
9160;SDS011;4615;51.340;8.288;2023-05-01T10:07:09;2.88;;;1.63;;
9160;SDS011;4615;51.340;8.288;2023-05-01T10:09:36;2.17;;;1.60;;
9160;SDS011;4615;51.340;8.288;2023-05-01T10:12:03;2.57;;;1.63;;
9160;SDS011;4615;51.340;8.288;2023-05-01T10:14:30;1.77;;;1.52;;
9160;SDS011;4615;51.340;8.288;2023-05-01T10:16:58;1.63;;;1.53;;
9160;SDS011;4615;51.340;8.288;2023-05-01T10:19:24;1.73;;;1.40;;
9160;SDS011;4615;51.340;8.288;2023-05-01T10:21:51;1.43;;;1.30;;
9160;SDS011;4615;51.340;8.288;2023-05-01T10:24:19;2.40;;;1.70;;
9160;SDS011;4615;51.340;8.288;2023-05-01T10:26:47;1.70;;;1.60;;
9160;SDS011;4615;51.340;8.288;2023-05-01T10:29:13;1.65;;;1.50;;
9160;SDS011;4615;51.340;8.288;2023-05-01T10:31:40;1.65;;;1.55;;
9160;SDS011;4615;51.340;8.288;2023-05-01T10:34:06;1.60;;;1.42;;
9160;SDS011;4615;51.340;8.288;2023-05-01T10:36:35;1.50;;;1.40;;
9160;SDS011;4615;51.340;8.288;2023-05-01T10:39:02;1.45;;;1.35;;
9160;SDS011;4615;51.340;8.288;2023-05-01T10:44:21;1.65;;;1.55;;
9160;SDS011;4615;51.340;8.288;2023-05-01T10:46:48;1.50;;;1.40;;
9160;SDS011;4615;51.340;8.288;2023-05-01T10:49:14;1.57;;;1.47;;
9160;SDS011;4615;51.340;8.288;2023-05-01T10:54:23;1.98;;;1.60;;
9160;SDS011;4615;51.340;8.288;2023-05-01T10:56:52;1.70;;;1.60;;
9160;SDS011;4615;51.340;8.288;2023-05-01T10:59:20;2.55;;;1.60;;
9160;SDS011;4615;51.340;8.288;2023-05-01T11:01:47;2.33;;;1.70;;
9160;SDS011;4615;51.340;8.288;2023-05-01T11:07:13;1.60;;;1.50;;
9160;SDS011;4615;51.340;8.288;2023-05-01T11:09:42;2.60;;;1.50;;
9160;SDS011;4615;51.340;8.288;2023-05-01T11:12:08;2.42;;;1.70;;
9160;SDS011;4615;51.340;8.288;2023-05-01T11:20:03;2.37;;;1.57;;
9160;SDS011;4615;51.340;8.288;2023-05-01T11:22:30;1.60;;;1.33;;
9160;SDS011;4615;51.340;8.288;2023-05-01T11:24:56;2.05;;;1.33;;
9160;SDS011;4615;51.340;8.288;2023-05-01T11:27:23;1.60;;;1.50;;
9160;SDS011;4615;51.340;8.288;2023-05-01T11:29:50;2.57;;;1.67;;
9160;SDS011;4615;51.340;8.288;2023-05-01T11:32:17;2.08;;;1.52;;
9160;SDS011;4615;51.340;8.288;2023-05-01T11:34:44;1.60;;;1.50;;
9160;SDS011;4615;51.340;8.288;2023-05-01T11:37:13;1.52;;;1.42;;
9160;SDS011;4615;51.340;8.288;2023-05-01T11:39:46;2.22;;;1.60;;
9160;SDS011;4615;51.340;8.288;2023-05-01T11:42:12;1.52;;;1.42;;
9160;SDS011;4615;51.340;8.288;2023-05-01T11:44:38;2.70;;;1.60;;
9160;SDS011;4615;51.340;8.288;2023-05-01T11:47:05;1.80;;;1.50;;
9160;SDS011;4615;51.340;8.288;2023-05-01T11:49:33;1.80;;;1.50;;
9160;SDS011;4615;51.340;8.288;2023-05-01T11:51:59;1.85;;;1.60;;
9160;SDS011;4615;51.340;8.288;2023-05-01T11:54:27;2.15;;;1.88;;
9160;SDS011;4615;51.340;8.288;2023-05-01T11:56:57;1.92;;;1.50;;
9160;SDS011;4615;51.340;8.288;2023-05-01T11:59:24;1.88;;;1.63;;
9160;SDS011;4615;51.340;8.288;2023-05-01T12:01:50;2.05;;;1.77;;
9160;SDS011;4615;51.340;8.288;2023-05-01T12:04:22;1.67;;;1.58;;
9160;SDS011;4615;51.340;8.288;2023-05-01T12:06:49;2.10;;;1.80;;
9160;SDS011;4615;51.340;8.288;2023-05-01T12:09:16;2.93;;;1.70;;
9160;SDS011;4615;51.340;8.288;2023-05-01T12:11:44;1.70;;;1.60;;
9160;SDS011;4615;51.340;8.288;2023-05-01T12:14:11;1.90;;;1.58;;
9160;SDS011;4615;51.340;8.288;2023-05-01T12:16:37;3.03;;;1.77;;
9160;SDS011;4615;51.340;8.288;2023-05-01T12:19:05;1.60;;;1.50;;
9160;SDS011;4615;51.340;8.288;2023-05-01T12:21:32;2.33;;;1.60;;
9160;SDS011;4615;51.340;8.288;2023-05-01T12:24:06;1.88;;;1.67;;
9160;SDS011;4615;51.340;8.288;2023-05-01T12:26:33;2.45;;;1.80;;
9160;SDS011;4615;51.340;8.288;2023-05-01T12:29:02;2.10;;;1.90;;
9160;SDS011;4615;51.340;8.288;2023-05-01T12:31:28;1.90;;;1.80;;
9160;SDS011;4615;51.340;8.288;2023-05-01T12:33:56;1.83;;;1.63;;
9160;SDS011;4615;51.340;8.288;2023-05-01T12:36:23;1.65;;;1.50;;
9160;SDS011;4615;51.340;8.288;2023-05-01T12:38:55;3.40;;;1.90;;
9160;SDS011;4615;51.340;8.288;2023-05-01T12:41:30;1.92;;;1.80;;
9160;SDS011;4615;51.340;8.288;2023-05-01T12:43:57;2.35;;;1.63;;
9160;SDS011;4615;51.340;8.288;2023-05-01T12:46:25;2.17;;;1.65;;
9160;SDS011;4615;51.340;8.288;2023-05-01T12:48:51;2.08;;;1.60;;
9160;SDS011;4615;51.340;8.288;2023-05-01T12:51:18;1.70;;;1.50;;
9160;SDS011;4615;51.340;8.288;2023-05-01T12:53:45;2.05;;;1.67;;
9160;SDS011;4615;51.340;8.288;2023-05-01T12:56:19;2.35;;;1.67;;
9160;SDS011;4615;51.340;8.288;2023-05-01T12:58:46;1.80;;;1.58;;
9160;SDS011;4615;51.340;8.288;2023-05-01T13:01:21;2.10;;;1.63;;
9160;SDS011;4615;51.340;8.288;2023-05-01T13:03:49;1.95;;;1.80;;
9160;SDS011;4615;51.340;8.288;2023-05-01T13:06:16;1.80;;;1.57;;
9160;SDS011;4615;51.340;8.288;2023-05-01T13:08:42;1.90;;;1.60;;
9160;SDS011;4615;51.340;8.288;2023-05-01T13:11:09;1.70;;;1.60;;
9160;SDS011;4615;51.340;8.288;2023-05-01T13:13:37;1.77;;;1.50;;
9160;SDS011;4615;51.340;8.288;2023-05-01T13:16:04;1.63;;;1.50;;
9160;SDS011;4615;51.340;8.288;2023-05-01T13:18:31;2.35;;;1.70;;
9160;SDS011;4615;51.340;8.288;2023-05-01T13:21:09;1.92;;;1.65;;
9160;SDS011;4615;51.340;8.288;2023-05-01T13:23:35;2.77;;;1.80;;
9160;SDS011;4615;51.340;8.288;2023-05-01T13:26:02;2.80;;;1.70;;
9160;SDS011;4615;51.340;8.288;2023-05-01T13:28:30;1.83;;;1.60;;
9160;SDS011;4615;51.340;8.288;2023-05-01T13:30:57;2.30;;;1.70;;
9160;SDS011;4615;51.340;8.288;2023-05-01T13:33:23;1.88;;;1.70;;
9160;SDS011;4615;51.340;8.288;2023-05-01T13:35:50;2.53;;;1.70;;
9160;SDS011;4615;51.340;8.288;2023-05-01T13:38:18;2.33;;;1.60;;
9160;SDS011;4615;51.340;8.288;2023-05-01T13:40:47;2.55;;;2.08;;
9160;SDS011;4615;51.340;8.288;2023-05-01T13:43:13;2.47;;;1.55;;
9160;SDS011;4615;51.340;8.288;2023-05-01T13:45:41;2.03;;;1.55;;
9160;SDS011;4615;51.340;8.288;2023-05-01T13:48:07;2.33;;;1.73;;
9160;SDS011;4615;51.340;8.288;2023-05-01T13:50:34;2.35;;;1.50;;
9160;SDS011;4615;51.340;8.288;2023-05-01T13:53:01;1.60;;;1.50;;
9160;SDS011;4615;51.340;8.288;2023-05-01T13:55:29;2.25;;;1.80;;
9160;SDS011;4615;51.340;8.288;2023-05-01T13:57:56;1.98;;;1.70;;
9160;SDS011;4615;51.340;8.288;2023-05-01T14:00:23;2.40;;;1.80;;
9160;SDS011;4615;51.340;8.288;2023-05-01T14:02:49;2.90;;;1.75;;
9160;SDS011;4615;51.340;8.288;2023-05-01T14:05:18;1.83;;;1.60;;
9160;SDS011;4615;51.340;8.288;2023-05-01T14:07:49;2.72;;;1.58;;
9160;SDS011;4615;51.340;8.288;2023-05-01T14:10:16;1.55;;;1.40;;
9160;SDS011;4615;51.340;8.288;2023-05-01T14:12:44;1.63;;;1.47;;
9160;SDS011;4615;51.340;8.288;2023-05-01T14:15:11;2.83;;;1.70;;
9160;SDS011;4615;51.340;8.288;2023-05-01T14:17:37;2.47;;;1.58;;
9160;SDS011;4615;51.340;8.288;2023-05-01T14:20:04;1.90;;;1.58;;
9160;SDS011;4615;51.340;8.288;2023-05-01T14:22:35;1.92;;;1.77;;
9160;SDS011;4615;51.340;8.288;2023-05-01T14:25:04;2.13;;;1.85;;
9160;SDS011;4615;51.340;8.288;2023-05-01T14:27:31;1.90;;;1.70;;
9160;SDS011;4615;51.340;8.288;2023-05-01T14:29:59;1.80;;;1.70;;
9160;SDS011;4615;51.340;8.288;2023-05-01T14:32:26;3.90;;;1.50;;
9160;SDS011;4615;51.340;8.288;2023-05-01T14:34:53;1.93;;;1.70;;
9160;SDS011;4615;51.340;8.288;2023-05-01T14:37:21;2.33;;;1.80;;
9160;SDS011;4615;51.340;8.288;2023-05-01T14:39:47;2.08;;;1.75;;
9160;SDS011;4615;51.340;8.288;2023-05-01T14:42:14;1.80;;;1.70;;
9160;SDS011;4615;51.340;8.288;2023-05-01T14:44:41;2.22;;;1.52;;
9160;SDS011;4615;51.340;8.288;2023-05-01T14:47:09;4.00;;;1.85;;
9160;SDS011;4615;51.340;8.288;2023-05-01T14:49:35;1.70;;;1.60;;
9160;SDS011;4615;51.340;8.288;2023-05-01T14:52:02;1.80;;;1.70;;
9160;SDS011;4615;51.340;8.288;2023-05-01T14:54:28;1.70;;;1.57;;
9160;SDS011;4615;51.340;8.288;2023-05-01T14:56:56;6.05;;;2.00;;
9160;SDS011;4615;51.340;8.288;2023-05-01T14:59:22;2.17;;;1.70;;
9160;SDS011;4615;51.340;8.288;2023-05-01T15:01:49;2.00;;;1.73;;
9160;SDS011;4615;51.340;8.288;2023-05-01T15:04:16;3.08;;;1.77;;
9160;SDS011;4615;51.340;8.288;2023-05-01T15:06:43;2.27;;;1.80;;
9160;SDS011;4615;51.340;8.288;2023-05-01T15:09:10;2.00;;;1.80;;
9160;SDS011;4615;51.340;8.288;2023-05-01T15:11:36;2.40;;;2.00;;
9160;SDS011;4615;51.340;8.288;2023-05-01T15:14:03;1.95;;;1.60;;
9160;SDS011;4615;51.340;8.288;2023-05-01T15:16:29;2.50;;;1.70;;
9160;SDS011;4615;51.340;8.288;2023-05-01T15:18:56;2.53;;;1.88;;
9160;SDS011;4615;51.340;8.288;2023-05-01T15:21:24;1.98;;;1.70;;
9160;SDS011;4615;51.340;8.288;2023-05-01T15:23:50;2.50;;;1.80;;
9160;SDS011;4615;51.340;8.288;2023-05-01T15:26:17;2.70;;;1.70;;
9160;SDS011;4615;51.340;8.288;2023-05-01T15:28:44;2.50;;;1.80;;
9160;SDS011;4615;51.340;8.288;2023-05-01T15:31:10;3.90;;;1.70;;
9160;SDS011;4615;51.340;8.288;2023-05-01T15:33:36;2.47;;;2.00;;
9160;SDS011;4615;51.340;8.288;2023-05-01T15:36:03;2.28;;;1.88;;